sensor_id;sensor_type;location;lat;lon;timestamp;pressure;altitude;pressure_sealevel;temperature;humidity
9189;BME280;34313;50.780;6.084;2022-11-03T00:01:09;99574.78;;;11.47;72.09
9189;BME280;34313;50.780;6.084;2022-11-03T00:03:35;99581.22;;;11.43;72.53
9189;BME280;34313;50.780;6.084;2022-11-03T00:06:01;99556.31;;;11.47;71.83
9189;BME280;34313;50.780;6.084;2022-11-03T00:08:31;99563.47;;;11.45;72.04
9189;BME280;34313;50.780;6.084;2022-11-03T00:11:11;99556.50;;;11.44;72.34
9189;BME280;34313;50.780;6.084;2022-11-03T00:13:39;99552.91;;;11.45;71.96
9189;BME280;34313;50.780;6.084;2022-11-03T00:16:05;99549.16;;;11.49;71.75
9189;BME280;34313;50.780;6.084;2022-11-03T00:18:31;99543.97;;;11.48;71.67
9189;BME280;34313;50.780;6.084;2022-11-03T00:21:01;99545.41;;;11.53;71.35
9189;BME280;34313;50.780;6.084;2022-11-03T00:23:30;99543.03;;;11.49;71.33
9189;BME280;34313;50.780;6.084;2022-11-03T00:28:35;99538.50;;;11.51;71.23
9189;BME280;34313;50.780;6.084;2022-11-03T00:31:08;99543.38;;;11.43;71.25
9189;BME280;34313;50.780;6.084;2022-11-03T00:33:35;99537.53;;;11.38;71.42
9189;BME280;34313;50.780;6.084;2022-11-03T00:36:00;99539.91;;;11.42;71.17
9189;BME280;34313;50.780;6.084;2022-11-03T00:38:27;99524.56;;;11.49;70.91
9189;BME280;34313;50.780;6.084;2022-11-03T00:41:01;99534.06;;;11.37;71.47
9189;BME280;34313;50.780;6.084;2022-11-03T00:43:28;99529.25;;;11.44;71.11
9189;BME280;34313;50.780;6.084;2022-11-03T00:45:54;99522.75;;;11.49;70.70
9189;BME280;34313;50.780;6.084;2022-11-03T00:48:20;99520.84;;;11.51;70.42
9189;BME280;34313;50.780;6.084;2022-11-03T00:53:26;99512.66;;;11.56;70.30
9189;BME280;34313;50.780;6.084;2022-11-03T00:55:51;99508.22;;;11.57;70.14
9189;BME280;34313;50.780;6.084;2022-11-03T00:58:16;99509.66;;;11.48;70.85
9189;BME280;34313;50.780;6.084;2022-11-03T01:00:42;99510.50;;;11.48;70.76
9189;BME280;34313;50.780;6.084;2022-11-03T01:03:07;99513.69;;;11.39;71.19
9189;BME280;34313;50.780;6.084;2022-11-03T01:05:33;99508.50;;;11.38;71.22
9189;BME280;34313;50.780;6.084;2022-11-03T01:08:16;99497.97;;;11.38;70.95
9189;BME280;34313;50.780;6.084;2022-11-03T01:10:42;99491.47;;;11.43;70.94
9189;BME280;34313;50.780;6.084;2022-11-03T01:13:27;99490.16;;;11.50;70.60
9189;BME280;34313;50.780;6.084;2022-11-03T01:15:56;99482.78;;;11.56;70.33
9189;BME280;34313;50.780;6.084;2022-11-03T01:18:23;99485.88;;;11.62;70.21
9189;BME280;34313;50.780;6.084;2022-11-03T01:20:56;99476.75;;;11.68;69.87
9189;BME280;34313;50.780;6.084;2022-11-03T01:23:22;99467.50;;;11.61;70.08
9189;BME280;34313;50.780;6.084;2022-11-03T01:25:49;99468.81;;;11.68;69.86
9189;BME280;34313;50.780;6.084;2022-11-03T01:28:14;99466.75;;;11.73;69.70
9189;BME280;34313;50.780;6.084;2022-11-03T01:30:40;99464.84;;;11.75;69.82
9189;BME280;34313;50.780;6.084;2022-11-03T01:33:05;99454.28;;;11.75;69.80
9189;BME280;34313;50.780;6.084;2022-11-03T01:35:30;99449.00;;;11.75;69.26
9189;BME280;34313;50.780;6.084;2022-11-03T01:37:56;99453.88;;;11.81;69.22
9189;BME280;34313;50.780;6.084;2022-11-03T01:40:21;99444.00;;;11.70;69.74
9189;BME280;34313;50.780;6.084;2022-11-03T01:42:47;99453.22;;;11.78;69.28
9189;BME280;34313;50.780;6.084;2022-11-03T01:45:12;99433.91;;;11.77;69.02
9189;BME280;34313;50.780;6.084;2022-11-03T01:47:38;99421.53;;;11.78;68.97
9189;BME280;34313;50.780;6.084;2022-11-03T01:50:09;99429.25;;;11.81;68.76
9189;BME280;34313;50.780;6.084;2022-11-03T01:52:44;99423.16;;;11.80;68.73
9189;BME280;34313;50.780;6.084;2022-11-03T01:55:18;99417.97;;;11.79;68.57
9189;BME280;34313;50.780;6.084;2022-11-03T01:57:54;99403.94;;;11.78;68.55
9189;BME280;34313;50.780;6.084;2022-11-03T02:00:22;99412.91;;;11.88;68.39
9189;BME280;34313;50.780;6.084;2022-11-03T02:02:47;99411.97;;;11.89;68.49
9189;BME280;34313;50.780;6.084;2022-11-03T02:05:15;99399.72;;;11.88;68.33
9189;BME280;34313;50.780;6.084;2022-11-03T02:08:10;99411.81;;;11.93;68.15
9189;BME280;34313;50.780;6.084;2022-11-03T02:10:38;99406.34;;;11.96;68.19
9189;BME280;34313;50.780;6.084;2022-11-03T02:13:14;99396.97;;;11.90;68.73
9189;BME280;34313;50.780;6.084;2022-11-03T02:15:42;99402.47;;;11.87;69.20
9189;BME280;34313;50.780;6.084;2022-11-03T02:18:09;99394.44;;;11.88;69.49
9189;BME280;34313;50.780;6.084;2022-11-03T02:20:35;99391.38;;;11.82;69.88
9189;BME280;34313;50.780;6.084;2022-11-03T02:23:11;99387.22;;;11.78;70.27
9189;BME280;34313;50.780;6.084;2022-11-03T02:25:45;99388.88;;;11.93;69.91
9189;BME280;34313;50.780;6.084;2022-11-03T02:28:14;99380.13;;;11.93;70.20
9189;BME280;34313;50.780;6.084;2022-11-03T02:33:36;99382.94;;;11.89;70.86
9189;BME280;34313;50.780;6.084;2022-11-03T02:38:46;99358.31;;;11.89;71.56
9189;BME280;34313;50.780;6.084;2022-11-03T02:41:13;99364.88;;;11.83;71.59
9189;BME280;34313;50.780;6.084;2022-11-03T02:43:40;99355.97;;;11.84;71.90
9189;BME280;34313;50.780;6.084;2022-11-03T02:46:06;99362.47;;;11.93;71.91
9189;BME280;34313;50.780;6.084;2022-11-03T02:48:33;99356.63;;;11.88;72.25
9189;BME280;34313;50.780;6.084;2022-11-03T02:50:58;99350.00;;;11.95;72.47
9189;BME280;34313;50.780;6.084;2022-11-03T02:53:26;99342.97;;;11.96;72.48
9189;BME280;34313;50.780;6.084;2022-11-03T03:00:54;99344.00;;;11.93;73.40
9189;BME280;34313;50.780;6.084;2022-11-03T03:03:50;99344.53;;;11.98;73.46
9189;BME280;34313;50.780;6.084;2022-11-03T03:06:29;99348.34;;;11.94;73.90
9189;BME280;34313;50.780;6.084;2022-11-03T03:09:01;99335.69;;;11.85;74.56
9189;BME280;34313;50.780;6.084;2022-11-03T03:11:28;99326.44;;;11.92;74.48
9189;BME280;34313;50.780;6.084;2022-11-03T03:14:11;99325.50;;;11.93;74.38
9189;BME280;34313;50.780;6.084;2022-11-03T03:16:59;99327.31;;;11.93;74.96
9189;BME280;34313;50.780;6.084;2022-11-03T03:19:32;99322.03;;;11.93;74.84
9189;BME280;34313;50.780;6.084;2022-11-03T03:22:14;99316.38;;;11.84;75.32
9189;BME280;34313;50.780;6.084;2022-11-03T03:25:14;99322.16;;;11.77;75.79
9189;BME280;34313;50.780;6.084;2022-11-03T03:27:46;99304.81;;;11.72;76.49
9189;BME280;34313;50.780;6.084;2022-11-03T03:30:13;99296.59;;;11.77;76.31
9189;BME280;34313;50.780;6.084;2022-11-03T03:32:45;99297.75;;;11.73;76.62
9189;BME280;34313;50.780;6.084;2022-11-03T03:35:15;99290.59;;;11.75;76.64
9189;BME280;34313;50.780;6.084;2022-11-03T03:37:45;99291.88;;;11.82;76.69
9189;BME280;34313;50.780;6.084;2022-11-03T03:40:15;99296.41;;;11.80;76.75
9189;BME280;34313;50.780;6.084;2022-11-03T03:42:44;99294.78;;;11.78;77.00
9189;BME280;34313;50.780;6.084;2022-11-03T03:45:11;99289.63;;;11.76;77.32
9189;BME280;34313;50.780;6.084;2022-11-03T03:47:37;99281.66;;;11.90;79.34
9189;BME280;34313;50.780;6.084;2022-11-03T03:50:03;99286.06;;;11.90;77.37
9189;BME280;34313;50.780;6.084;2022-11-03T03:52:28;99279.09;;;11.89;77.02
9189;BME280;34313;50.780;6.084;2022-11-03T03:54:55;99279.50;;;11.83;77.38
9189;BME280;34313;50.780;6.084;2022-11-03T03:57:22;99287.31;;;11.84;77.83
9189;BME280;34313;50.780;6.084;2022-11-03T03:59:48;99282.56;;;11.89;77.64
9189;BME280;34313;50.780;6.084;2022-11-03T04:02:14;99283.66;;;11.87;77.68
9189;BME280;34313;50.780;6.084;2022-11-03T04:04:40;99271.75;;;11.94;77.21
9189;BME280;34313;50.780;6.084;2022-11-03T04:07:06;99261.91;;;11.96;77.39
9189;BME280;34313;50.780;6.084;2022-11-03T04:09:50;99268.53;;;11.89;77.58
9189;BME280;34313;50.780;6.084;2022-11-03T04:12:15;99263.50;;;11.99;77.32
9189;BME280;34313;50.780;6.084;2022-11-03T04:14:59;99253.25;;;11.94;77.38
9189;BME280;34313;50.780;6.084;2022-11-03T04:17:45;99247.97;;;11.94;77.68
9189;BME280;34313;50.780;6.084;2022-11-03T04:20:29;99245.00;;;11.99;77.55
9189;BME280;34313;50.780;6.084;2022-11-03T04:23:14;99242.91;;;12.04;77.17
9189;BME280;34313;50.780;6.084;2022-11-03T04:25:41;99236.69;;;12.05;77.40
9189;BME280;34313;50.780;6.084;2022-11-03T04:28:13;99232.22;;;12.05;77.16
9189;BME280;34313;50.780;6.084;2022-11-03T04:30:38;99224.09;;;12.08;77.32
9189;BME280;34313;50.780;6.084;2022-11-03T04:33:13;99228.75;;;12.05;77.48
9189;BME280;34313;50.780;6.084;2022-11-03T04:35:40;99226.94;;;12.05;77.29
9189;BME280;34313;50.780;6.084;2022-11-03T04:38:20;99222.41;;;12.07;77.39
9189;BME280;34313;50.780;6.084;2022-11-03T04:40:57;99217.00;;;12.09;77.59
9189;BME280;34313;50.780;6.084;2022-11-03T04:43:29;99218.81;;;12.08;77.21
9189;BME280;34313;50.780;6.084;2022-11-03T04:45:55;99224.53;;;12.15;76.92
9189;BME280;34313;50.780;6.084;2022-11-03T04:48:21;99223.66;;;12.15;76.99
9189;BME280;34313;50.780;6.084;2022-11-03T04:50:49;99218.16;;;12.18;77.13
9189;BME280;34313;50.780;6.084;2022-11-03T04:53:17;99215.00;;;12.13;76.96
9189;BME280;34313;50.780;6.084;2022-11-03T04:55:44;99213.09;;;12.15;76.99
9189;BME280;34313;50.780;6.084;2022-11-03T04:58:22;99214.59;;;12.19;76.73
9189;BME280;34313;50.780;6.084;2022-11-03T05:00:52;99210.44;;;12.15;76.49
9189;BME280;34313;50.780;6.084;2022-11-03T05:03:23;99208.56;;;12.17;76.99
9189;BME280;34313;50.780;6.084;2022-11-03T05:05:49;99206.97;;;12.14;76.90
9189;BME280;34313;50.780;6.084;2022-11-03T05:08:19;99200.84;;;12.14;76.49
9189;BME280;34313;50.780;6.084;2022-11-03T05:10:45;99185.53;;;12.19;76.38
9189;BME280;34313;50.780;6.084;2022-11-03T05:13:24;99181.38;;;12.15;76.33
9189;BME280;34313;50.780;6.084;2022-11-03T05:15:52;99172.84;;;12.11;76.37
9189;BME280;34313;50.780;6.084;2022-11-03T05:18:24;99167.56;;;12.11;76.33
9189;BME280;34313;50.780;6.084;2022-11-03T05:20:57;99170.09;;;12.13;76.17
9189;BME280;34313;50.780;6.084;2022-11-03T05:23:25;99161.53;;;12.09;76.05
9189;BME280;34313;50.780;6.084;2022-11-03T05:25:52;99154.34;;;12.11;76.19
9189;BME280;34313;50.780;6.084;2022-11-03T05:28:32;99137.13;;;12.05;76.08
9189;BME280;34313;50.780;6.084;2022-11-03T05:30:59;99131.78;;;11.94;76.64
9189;BME280;34313;50.780;6.084;2022-11-03T05:33:27;99124.69;;;11.95;76.30
9189;BME280;34313;50.780;6.084;2022-11-03T05:35:54;99117.91;;;12.03;75.75
9189;BME280;34313;50.780;6.084;2022-11-03T05:38:22;99119.72;;;12.03;75.86
9189;BME280;34313;50.780;6.084;2022-11-03T05:40:49;99124.03;;;12.04;75.70
9189;BME280;34313;50.780;6.084;2022-11-03T05:43:15;99114.19;;;12.06;75.39
9189;BME280;34313;50.780;6.084;2022-11-03T05:45:41;99118.34;;;12.10;75.27
9189;BME280;34313;50.780;6.084;2022-11-03T05:48:34;99111.91;;;12.01;75.02
9189;BME280;34313;50.780;6.084;2022-11-03T05:51:09;99121.81;;;12.10;74.75
9189;BME280;34313;50.780;6.084;2022-11-03T05:53:38;99121.81;;;12.10;75.10
9189;BME280;34313;50.780;6.084;2022-11-03T05:56:12;99122.00;;;12.07;75.11
9189;BME280;34313;50.780;6.084;2022-11-03T05:58:41;99113.88;;;12.10;74.43
9189;BME280;34313;50.780;6.084;2022-11-03T06:01:27;99130.16;;;12.17;74.43
9189;BME280;34313;50.780;6.084;2022-11-03T06:03:54;99119.47;;;12.19;73.94
9189;BME280;34313;50.780;6.084;2022-11-03T06:08:50;99118.34;;;12.10;73.89
9189;BME280;34313;50.780;6.084;2022-11-03T06:11:26;99108.28;;;12.15;73.64
9189;BME280;34313;50.780;6.084;2022-11-03T06:13:54;99101.50;;;12.11;73.47
9189;BME280;34313;50.780;6.084;2022-11-03T06:18:50;99088.84;;;12.03;73.51
9189;BME280;34313;50.780;6.084;2022-11-03T06:21:18;99093.28;;;12.16;73.64
9189;BME280;34313;50.780;6.084;2022-11-03T06:23:46;99096.22;;;12.11;73.43
9189;BME280;34313;50.780;6.084;2022-11-03T06:26:20;99086.13;;;12.05;73.70
9189;BME280;34313;50.780;6.084;2022-11-03T06:28:46;99079.75;;;12.07;73.58
9189;BME280;34313;50.780;6.084;2022-11-03T06:31:32;99079.13;;;12.04;73.99
9189;BME280;34313;50.780;6.084;2022-11-03T06:33:58;99073.31;;;11.99;74.01
9189;BME280;34313;50.780;6.084;2022-11-03T06:36:25;99080.16;;;12.14;73.60
9189;BME280;34313;50.780;6.084;2022-11-03T06:38:58;99075.50;;;12.18;73.14
9189;BME280;34313;50.780;6.084;2022-11-03T06:41:30;99069.59;;;12.14;73.42
9189;BME280;34313;50.780;6.084;2022-11-03T06:43:57;99069.38;;;12.17;73.47
9189;BME280;34313;50.780;6.084;2022-11-03T06:46:26;99055.81;;;12.22;73.16
9189;BME280;34313;50.780;6.084;2022-11-03T06:48:54;99055.34;;;12.17;73.23
9189;BME280;34313;50.780;6.084;2022-11-03T06:51:24;99048.88;;;12.21;73.21
9189;BME280;34313;50.780;6.084;2022-11-03T06:53:52;99044.81;;;12.28;73.03
9189;BME280;34313;50.780;6.084;2022-11-03T06:56:20;99041.88;;;12.33;72.84
9189;BME280;34313;50.780;6.084;2022-11-03T06:58:47;99043.53;;;12.34;72.65
9189;BME280;34313;50.780;6.084;2022-11-03T07:01:15;99042.38;;;12.38;72.52
9189;BME280;34313;50.780;6.084;2022-11-03T07:03:43;99044.41;;;12.34;72.34
9189;BME280;34313;50.780;6.084;2022-11-03T07:06:41;99038.66;;;12.40;71.89
9189;BME280;34313;50.780;6.084;2022-11-03T07:09:13;99037.09;;;12.38;72.14
9189;BME280;34313;50.780;6.084;2022-11-03T07:11:46;99025.09;;;12.45;71.88
9189;BME280;34313;50.780;6.084;2022-11-03T07:14:21;99037.84;;;12.51;71.07
9189;BME280;34313;50.780;6.084;2022-11-03T07:16:50;99021.88;;;12.53;70.62
9189;BME280;34313;50.780;6.084;2022-11-03T07:22:13;99021.31;;;12.60;69.73
9189;BME280;34313;50.780;6.084;2022-11-03T07:24:37;99023.94;;;12.60;69.24
9189;BME280;34313;50.780;6.084;2022-11-03T07:29:32;99020.03;;;12.66;68.45
9189;BME280;34313;50.780;6.084;2022-11-03T07:31:58;99008.53;;;12.78;67.96
9189;BME280;34313;50.780;6.084;2022-11-03T07:34:27;99017.63;;;12.74;68.21
9189;BME280;34313;50.780;6.084;2022-11-03T07:36:56;99022.59;;;12.79;68.03
9189;BME280;34313;50.780;6.084;2022-11-03T07:39:22;99021.75;;;12.78;67.82
9189;BME280;34313;50.780;6.084;2022-11-03T07:41:49;99022.97;;;12.85;67.36
9189;BME280;34313;50.780;6.084;2022-11-03T07:44:18;99021.38;;;12.83;67.51
9189;BME280;34313;50.780;6.084;2022-11-03T07:46:48;99013.94;;;12.88;67.00
9189;BME280;34313;50.780;6.084;2022-11-03T07:51:50;98999.28;;;12.95;66.08
9189;BME280;34313;50.780;6.084;2022-11-03T07:54:29;99000.06;;;12.97;66.18
9189;BME280;34313;50.780;6.084;2022-11-03T07:59:38;98994.38;;;13.02;66.09
9189;BME280;34313;50.780;6.084;2022-11-03T08:02:28;99000.41;;;13.04;65.80
9189;BME280;34313;50.780;6.084;2022-11-03T08:04:54;98978.19;;;13.07;65.91
9189;BME280;34313;50.780;6.084;2022-11-03T08:07:20;98992.47;;;13.04;65.65
9189;BME280;34313;50.780;6.084;2022-11-03T08:09:45;98991.41;;;13.18;65.19
9189;BME280;34313;50.780;6.084;2022-11-03T08:12:10;98988.16;;;13.14;65.06
9189;BME280;34313;50.780;6.084;2022-11-03T08:14:36;98984.06;;;13.10;65.40
9189;BME280;34313;50.780;6.084;2022-11-03T08:17:02;98990.31;;;13.09;65.08
9189;BME280;34313;50.780;6.084;2022-11-03T08:19:27;98982.75;;;13.16;65.23
9189;BME280;34313;50.780;6.084;2022-11-03T08:21:53;98977.44;;;13.16;65.22
9189;BME280;34313;50.780;6.084;2022-11-03T08:24:18;98980.25;;;13.26;64.76
9189;BME280;34313;50.780;6.084;2022-11-03T08:26:44;98964.84;;;13.31;64.18
9189;BME280;34313;50.780;6.084;2022-11-03T08:29:09;98968.63;;;13.39;64.06
9189;BME280;34313;50.780;6.084;2022-11-03T08:31:34;98957.06;;;13.52;63.92
9189;BME280;34313;50.780;6.084;2022-11-03T08:34:00;98960.50;;;13.64;63.71
9189;BME280;34313;50.780;6.084;2022-11-03T08:36:25;98950.50;;;13.67;63.80
9189;BME280;34313;50.780;6.084;2022-11-03T08:38:51;98938.34;;;13.76;62.97
9189;BME280;34313;50.780;6.084;2022-11-03T08:41:16;98939.91;;;13.78;63.05
9189;BME280;34313;50.780;6.084;2022-11-03T08:43:41;98924.94;;;14.00;62.17
9189;BME280;34313;50.780;6.084;2022-11-03T08:46:07;98922.88;;;14.04;61.77
9189;BME280;34313;50.780;6.084;2022-11-03T08:48:32;98917.78;;;14.12;61.60
9189;BME280;34313;50.780;6.084;2022-11-03T08:50:57;98910.41;;;14.15;61.40
9189;BME280;34313;50.780;6.084;2022-11-03T08:53:24;98892.00;;;14.14;61.43
9189;BME280;34313;50.780;6.084;2022-11-03T08:55:51;98894.66;;;14.14;61.36
9189;BME280;34313;50.780;6.084;2022-11-03T08:58:16;98871.16;;;14.09;61.53
9189;BME280;34313;50.780;6.084;2022-11-03T09:00:42;98880.16;;;14.18;61.75
9189;BME280;34313;50.780;6.084;2022-11-03T09:03:07;98864.25;;;14.18;61.35
9189;BME280;34313;50.780;6.084;2022-11-03T09:05:32;98861.91;;;14.36;61.19
9189;BME280;34313;50.780;6.084;2022-11-03T09:07:58;98853.03;;;14.26;61.16
9189;BME280;34313;50.780;6.084;2022-11-03T09:10:24;98842.75;;;14.32;60.89
9189;BME280;34313;50.780;6.084;2022-11-03T09:12:49;98831.13;;;14.24;61.46
9189;BME280;34313;50.780;6.084;2022-11-03T09:15:15;98842.31;;;14.27;61.14
9189;BME280;34313;50.780;6.084;2022-11-03T09:17:40;98846.94;;;14.35;61.55
9189;BME280;34313;50.780;6.084;2022-11-03T09:20:05;98822.63;;;14.30;61.17
9189;BME280;34313;50.780;6.084;2022-11-03T09:22:31;98816.97;;;14.34;61.00
9189;BME280;34313;50.780;6.084;2022-11-03T09:24:57;98809.59;;;14.38;60.91
9189;BME280;34313;50.780;6.084;2022-11-03T09:27:23;98817.75;;;14.46;60.93
9189;BME280;34313;50.780;6.084;2022-11-03T09:29:48;98824.03;;;14.55;60.86
9189;BME280;34313;50.780;6.084;2022-11-03T09:32:14;98808.22;;;14.65;60.31
9189;BME280;34313;50.780;6.084;2022-11-03T09:34:40;98818.59;;;14.56;59.94
9189;BME280;34313;50.780;6.084;2022-11-03T09:37:05;98823.31;;;14.74;60.06
9189;BME280;34313;50.780;6.084;2022-11-03T09:39:30;98806.91;;;14.80;59.46
9189;BME280;34313;50.780;6.084;2022-11-03T09:41:56;98799.13;;;14.88;59.11
9189;BME280;34313;50.780;6.084;2022-11-03T09:44:23;98796.03;;;14.93;59.30
9189;BME280;34313;50.780;6.084;2022-11-03T09:46:49;98783.72;;;14.82;59.26
9189;BME280;34313;50.780;6.084;2022-11-03T09:49:15;98779.25;;;14.83;59.20
9189;BME280;34313;50.780;6.084;2022-11-03T09:51:44;98762.88;;;14.68;59.29
9189;BME280;34313;50.780;6.084;2022-11-03T09:54:12;98768.69;;;14.62;59.46
9189;BME280;34313;50.780;6.084;2022-11-03T09:56:40;98756.75;;;14.46;59.86
9189;BME280;34313;50.780;6.084;2022-11-03T09:59:18;98734.94;;;14.43;59.54
9189;BME280;34313;50.780;6.084;2022-11-03T10:01:45;98740.44;;;14.51;59.56
9189;BME280;34313;50.780;6.084;2022-11-03T10:04:13;98736.53;;;14.55;59.28
9189;BME280;34313;50.780;6.084;2022-11-03T10:06:38;98733.66;;;14.58;59.33
9189;BME280;34313;50.780;6.084;2022-11-03T10:09:06;98706.94;;;14.50;59.49
9189;BME280;34313;50.780;6.084;2022-11-03T10:11:35;98708.22;;;14.55;59.19
9189;BME280;34313;50.780;6.084;2022-11-03T10:14:01;98704.47;;;14.58;58.85
9189;BME280;34313;50.780;6.084;2022-11-03T10:16:27;98700.75;;;14.70;58.44
9189;BME280;34313;50.780;6.084;2022-11-03T10:18:52;98692.09;;;14.68;58.47
9189;BME280;34313;50.780;6.084;2022-11-03T10:21:21;98696.56;;;14.78;58.14
9189;BME280;34313;50.780;6.084;2022-11-03T10:23:47;98680.38;;;14.71;57.86
9189;BME280;34313;50.780;6.084;2022-11-03T10:26:15;98681.53;;;14.88;57.97
9189;BME280;34313;50.780;6.084;2022-11-03T10:29:03;98681.66;;;14.86;57.41
9189;BME280;34313;50.780;6.084;2022-11-03T10:31:40;98688.50;;;14.89;57.03
9189;BME280;34313;50.780;6.084;2022-11-03T10:34:35;98688.78;;;14.86;57.02
9189;BME280;34313;50.780;6.084;2022-11-03T10:39:41;98685.88;;;14.99;56.83
9189;BME280;34313;50.780;6.084;2022-11-03T10:42:16;98674.97;;;15.02;56.92
9189;BME280;34313;50.780;6.084;2022-11-03T10:44:42;98672.63;;;15.08;56.46
9189;BME280;34313;50.780;6.084;2022-11-03T10:47:24;98679.63;;;15.09;56.59
9189;BME280;34313;50.780;6.084;2022-11-03T10:49:50;98672.47;;;15.10;57.57
9189;BME280;34313;50.780;6.084;2022-11-03T10:52:19;98675.13;;;15.20;56.94
9189;BME280;34313;50.780;6.084;2022-11-03T10:54:47;98660.31;;;15.07;57.13
9189;BME280;34313;50.780;6.084;2022-11-03T10:57:13;98645.53;;;15.05;56.55
9189;BME280;34313;50.780;6.084;2022-11-03T10:59:39;98652.78;;;15.03;56.78
9189;BME280;34313;50.780;6.084;2022-11-03T11:02:14;98633.47;;;14.81;57.43
9189;BME280;34313;50.780;6.084;2022-11-03T11:04:41;98612.41;;;14.80;57.21
9189;BME280;34313;50.780;6.084;2022-11-03T11:07:20;98627.38;;;14.90;57.15
9189;BME280;34313;50.780;6.084;2022-11-03T11:09:49;98614.78;;;14.92;57.09
9189;BME280;34313;50.780;6.084;2022-11-03T11:12:19;98620.09;;;15.02;57.05
9189;BME280;34313;50.780;6.084;2022-11-03T11:14:59;98612.00;;;15.04;56.70
9189;BME280;34313;50.780;6.084;2022-11-03T11:17:40;98615.34;;;14.96;56.55
9189;BME280;34313;50.780;6.084;2022-11-03T11:22:45;98597.72;;;15.15;55.90
9189;BME280;34313;50.780;6.084;2022-11-03T11:25:11;98592.41;;;15.15;55.77
9189;BME280;34313;50.780;6.084;2022-11-03T11:33:11;98576.50;;;15.34;54.74
9189;BME280;34313;50.780;6.084;2022-11-03T11:41:05;98553.06;;;15.67;54.24
9189;BME280;34313;50.780;6.084;2022-11-03T11:43:31;98550.41;;;15.77;53.33
9189;BME280;34313;50.780;6.084;2022-11-03T11:51:21;98538.69;;;16.25;51.92
9189;BME280;34313;50.780;6.084;2022-11-03T11:53:47;98536.38;;;16.40;51.66
9189;BME280;34313;50.780;6.084;2022-11-03T11:56:16;98524.19;;;16.37;51.74
9189;BME280;34313;50.780;6.084;2022-11-03T11:58:51;98515.38;;;16.37;51.84
9189;BME280;34313;50.780;6.084;2022-11-03T12:01:25;98511.22;;;16.34;52.08
9189;BME280;34313;50.780;6.084;2022-11-03T12:03:56;98508.03;;;16.31;52.33
9189;BME280;34313;50.780;6.084;2022-11-03T12:06:37;98492.28;;;16.19;52.44
9189;BME280;34313;50.780;6.084;2022-11-03T12:11:45;98496.75;;;16.01;53.04
9189;BME280;34313;50.780;6.084;2022-11-03T12:14:36;98489.19;;;15.96;53.18
9189;BME280;34313;50.780;6.084;2022-11-03T12:22:37;98476.03;;;15.77;54.24
9189;BME280;34313;50.780;6.084;2022-11-03T12:24:56;98467.44;;;15.55;54.75
9189;BME280;34313;50.780;6.084;2022-11-03T12:29:55;98445.16;;;15.66;54.86
9189;BME280;34313;50.780;6.084;2022-11-03T12:32:21;98428.06;;;15.68;55.03
9189;BME280;34313;50.780;6.084;2022-11-03T12:34:46;98420.97;;;15.69;54.70
9189;BME280;34313;50.780;6.084;2022-11-03T12:37:12;98418.19;;;15.61;54.88
9189;BME280;34313;50.780;6.084;2022-11-03T12:39:37;98406.44;;;15.63;55.01
9189;BME280;34313;50.780;6.084;2022-11-03T12:42:07;98397.63;;;15.63;54.93
9189;BME280;34313;50.780;6.084;2022-11-03T12:44:33;98387.09;;;15.71;54.75
9189;BME280;34313;50.780;6.084;2022-11-03T12:46:58;98379.28;;;15.69;54.91
9189;BME280;34313;50.780;6.084;2022-11-03T12:49:24;98371.72;;;15.75;54.90
9189;BME280;34313;50.780;6.084;2022-11-03T12:51:49;98359.91;;;15.87;54.73
9189;BME280;34313;50.780;6.084;2022-11-03T12:54:15;98347.38;;;15.97;54.22
9189;BME280;34313;50.780;6.084;2022-11-03T12:56:40;98349.41;;;16.03;53.81
9189;BME280;34313;50.780;6.084;2022-11-03T12:59:06;98343.88;;;16.15;53.65
9189;BME280;34313;50.780;6.084;2022-11-03T13:01:32;98343.41;;;16.19;53.82
9189;BME280;34313;50.780;6.084;2022-11-03T13:03:57;98344.00;;;16.31;53.56
9189;BME280;34313;50.780;6.084;2022-11-03T13:06:23;98336.84;;;16.32;53.39
9189;BME280;34313;50.780;6.084;2022-11-03T13:08:48;98337.84;;;16.13;53.68
9189;BME280;34313;50.780;6.084;2022-11-03T13:11:14;98322.75;;;16.13;53.94
9189;BME280;34313;50.780;6.084;2022-11-03T13:13:58;98325.66;;;16.20;53.87
9189;BME280;34313;50.780;6.084;2022-11-03T13:16:24;98314.25;;;16.10;54.11
9189;BME280;34313;50.780;6.084;2022-11-03T13:18:49;98310.97;;;16.16;54.05
9189;BME280;34313;50.780;6.084;2022-11-03T13:21:15;98308.09;;;16.09;54.13
9189;BME280;34313;50.780;6.084;2022-11-03T13:23:40;98300.44;;;16.06;54.36
9189;BME280;34313;50.780;6.084;2022-11-03T13:26:06;98297.19;;;15.94;54.38
9189;BME280;34313;50.780;6.084;2022-11-03T13:28:31;98289.75;;;15.80;54.76
9189;BME280;34313;50.780;6.084;2022-11-03T13:30:56;98272.88;;;15.71;54.89
9189;BME280;34313;50.780;6.084;2022-11-03T13:33:22;98276.50;;;15.70;55.10
9189;BME280;34313;50.780;6.084;2022-11-03T13:35:47;98279.25;;;15.60;55.60
9189;BME280;34313;50.780;6.084;2022-11-03T13:38:13;98271.28;;;15.60;55.87
9189;BME280;34313;50.780;6.084;2022-11-03T13:40:38;98254.97;;;15.73;56.04
9189;BME280;34313;50.780;6.084;2022-11-03T13:43:03;98259.59;;;15.71;55.93
9189;BME280;34313;50.780;6.084;2022-11-03T13:45:29;98252.59;;;15.70;55.97
9189;BME280;34313;50.780;6.084;2022-11-03T13:47:54;98251.19;;;15.76;56.09
9189;BME280;34313;50.780;6.084;2022-11-03T13:50:19;98255.03;;;15.63;56.38
9189;BME280;34313;50.780;6.084;2022-11-03T13:52:45;98269.91;;;15.56;56.65
9189;BME280;34313;50.780;6.084;2022-11-03T13:55:10;98258.00;;;15.42;57.02
9189;BME280;34313;50.780;6.084;2022-11-03T13:57:36;98255.47;;;15.41;57.56
9189;BME280;34313;50.780;6.084;2022-11-03T14:00:05;98257.28;;;15.22;58.08
9189;BME280;34313;50.780;6.084;2022-11-03T14:02:32;98260.00;;;15.12;59.24
9189;BME280;34313;50.780;6.084;2022-11-03T14:04:57;98260.75;;;15.05;60.33
9189;BME280;34313;50.780;6.084;2022-11-03T14:07:22;98265.56;;;14.91;60.85
9189;BME280;34313;50.780;6.084;2022-11-03T14:09:48;98260.19;;;14.83;61.26
9189;BME280;34313;50.780;6.084;2022-11-03T14:12:13;98264.53;;;14.74;62.84
9189;BME280;34313;50.780;6.084;2022-11-03T14:15:04;98259.25;;;14.55;63.82
9189;BME280;34313;50.780;6.084;2022-11-03T14:17:30;98268.09;;;14.46;64.98
9189;BME280;34313;50.780;6.084;2022-11-03T14:19:56;98255.03;;;14.25;65.43
9189;BME280;34313;50.780;6.084;2022-11-03T14:22:22;98254.75;;;14.18;66.81
9189;BME280;34313;50.780;6.084;2022-11-03T14:24:48;98247.00;;;14.07;67.05